Time,TemperatureF,DewpointF,PressureIn,WindDirection,WindDirectionDegrees,WindSpeedMPH,WindSpeedGustMPH,Humidity,HourlyPrecipIn,Conditions,Clouds,dailyrainin,SoftwareType,DateUTC
2013-12-26 00:03:00,-999.0,-99.9,-100.00,SE,134,3.0,4.0,-999,-99.99,,,-99.99,,2013-12-26 05:03:00,
2013-12-26 00:12:00,-999.0,-99.9,-100.00,SSE,158,3.0,4.0,-999,-99.99,,,-99.99,,2013-12-26 05:12:00,
2013-12-26 00:53:00,-999.0,-99.9,-100.00,SE,136,4.0,6.0,-999,-99.99,,,-99.99,,2013-12-26 05:53:00,
2013-12-26 01:03:00,-999.0,-99.9,-100.00,SSE,161,4.0,5.0,-999,-99.99,,,-99.99,,2013-12-26 06:03:00,
2013-12-26 01:22:00,-999.0,-99.9,-100.00,SSE,164,6.0,7.0,-999,-99.99,,,-99.99,,2013-12-26 06:22:00,
2013-12-26 01:33:00,-999.0,-99.9,-100.00,SSW,196,2.0,3.0,-999,-99.99,,,-99.99,,2013-12-26 06:33:00,
2013-12-26 01:43:00,-999.0,-99.9,-100.00,SSE,161,5.0,6.0,-999,-99.99,,,-99.99,,2013-12-26 06:43:00,
2013-12-26 01:52:00,-999.0,-99.9,-100.00,SSE,161,4.0,5.0,-999,-99.99,,,-99.99,,2013-12-26 06:52:00,
2013-12-26 02:53:00,-999.0,-99.9,-100.00,South,179,1.0,2.0,-999,-99.99,,,-99.99,,2013-12-26 07:53:00,
2013-12-26 03:12:00,-999.0,-99.9,-100.00,NNE,28,1.0,2.0,-999,-99.99,,,-99.99,,2013-12-26 08:12:00,
2013-12-26 03:22:00,-999.0,-99.9,-100.00,SSW,199,1.0,3.0,-999,-99.99,,,-99.99,,2013-12-26 08:22:00,
2013-12-26 03:32:00,-999.0,-99.9,-100.00,SW,225,0.0,1.0,-999,-99.99,,,-99.99,,2013-12-26 08:32:00,
2013-12-26 03:42:00,-999.0,-99.9,-100.00,SSE,168,2.0,3.0,-999,-99.99,,,-99.99,,2013-12-26 08:42:00,
2013-12-26 04:02:00,-999.0,-99.9,-100.00,SE,138,4.0,5.0,-999,-99.99,,,-99.99,,2013-12-26 09:02:00,
2013-12-26 04:12:00,-999.0,-99.9,29.94,SE,138,4.0,5.0,-999,-99.99,,,-99.99,,2013-12-26 09:12:00,
2013-12-26 04:22:00,-999.0,-99.9,-100.00,SE,146,5.0,6.0,-999,-99.99,,,-99.99,,2013-12-26 09:22:00,
2013-12-26 04:54:00,-999.0,-99.9,29.94,East,86,1.0,2.0,-999,-99.99,,,-99.99,,2013-12-26 09:54:00,
2013-12-26 05:03:00,-999.0,-99.9,-100.00,SE,145,4.0,5.0,-999,-99.99,,,-99.99,,2013-12-26 10:03:00,
2013-12-26 05:13:00,-999.0,-99.9,-100.00,SE,139,3.0,5.0,-999,-99.99,,,-99.99,,2013-12-26 10:13:00,
2013-12-26 05:22:00,-999.0,-99.9,-100.00,SSE,161,3.0,4.0,-999,-99.99,,,-99.99,,2013-12-26 10:22:00,
2013-12-26 05:32:00,-999.0,-99.9,-100.00,South,174,2.0,3.0,-999,-99.99,,,-99.99,,2013-12-26 10:32:00,
2013-12-26 05:43:00,-999.0,-99.9,-100.00,ENE,59,1.0,3.0,-999,-99.99,,,-99.99,,2013-12-26 10:43:00,
2013-12-26 05:53:00,-999.0,-99.9,-100.00,NNW,343,3.0,3.0,-999,-99.99,,,-99.99,,2013-12-26 10:53:00,
2013-12-26 06:03:00,-999.0,-99.9,-100.00,NE,36,2.0,3.0,-999,-99.99,,,-99.99,,2013-12-26 11:03:00,
2013-12-26 06:12:00,-999.0,-99.9,-100.00,NE,52,2.0,2.0,-999,-99.99,,,-99.99,,2013-12-26 11:12:00,
2013-12-26 06:22:00,-999.0,-99.9,-100.00,NE,36,2.0,2.0,-999,-99.99,,,-99.99,,2013-12-26 11:22:00,
2013-12-26 06:43:00,-999.0,-99.9,-100.00,NNE,29,1.0,2.0,-999,-99.99,,,-99.99,,2013-12-26 11:43:00,
2013-12-26 07:22:00,-999.0,-99.9,-100.00,South,174,2.0,3.0,-999,-99.99,,,-99.99,,2013-12-26 12:22:00,
2013-12-26 07:33:00,-999.0,-99.9,-100.00,SE,139,3.0,3.0,-999,-99.99,,,-99.99,,2013-12-26 12:33:00,
2013-12-26 07:42:00,-999.0,-99.9,-100.00,SE,129,2.0,4.0,-999,-99.99,,,-99.99,,2013-12-26 12:42:00,
2013-12-26 07:53:00,-999.0,-99.9,-100.00,ESE,113,2.0,3.0,-999,-99.99,,,-99.99,,2013-12-26 12:53:00,
2013-12-26 08:32:00,-999.0,-99.9,29.98,NW,324,1.0,2.0,-999,-99.99,,,-99.99,,2013-12-26 13:32:00,
2013-12-26 08:42:00,-999.0,-99.9,-100.00,NNW,346,1.0,2.0,-999,-99.99,,,-99.99,,2013-12-26 13:42:00,
2013-12-26 08:53:00,-999.0,-99.9,-100.00,SE,132,0.0,1.0,-999,-99.99,,,-99.99,,2013-12-26 13:53:00,
2013-12-26 09:02:00,-999.0,-99.9,-100.00,SE,132,3.0,3.0,-999,-99.99,,,-99.99,,2013-12-26 14:02:00,
2013-12-26 09:12:00,-999.0,-99.9,-100.00,SE,145,3.0,4.0,-999,-99.99,,,-99.99,,2013-12-26 14:12:00,
2013-12-26 09:22:00,-999.0,-99.9,-100.00,South,169,3.0,5.0,-999,-99.99,,,-99.99,,2013-12-26 14:22:00,
2013-12-26 10:12:00,-999.0,-99.9,-100.00,South,178,3.0,7.0,-999,-99.99,,,-99.99,,2013-12-26 15:12:00,
2013-12-26 10:22:00,-999.0,-99.9,-100.00,SSW,198,6.0,7.0,-999,-99.99,,,-99.99,,2013-12-26 15:22:00,
2013-12-26 10:34:00,-999.0,-99.9,-100.00,South,183,4.0,7.0,-999,-99.99,,,-99.99,,2013-12-26 15:34:00,
2013-12-26 10:54:00,-999.0,-99.9,-100.00,South,178,4.0,6.0,-999,-99.99,,,-99.99,,2013-12-26 15:54:00,
2013-12-26 11:13:00,-999.0,-99.9,-100.00,SW,222,6.0,9.0,-999,-99.99,,,-99.99,,2013-12-26 16:13:00,
2013-12-26 11:23:00,-999.0,-99.9,-100.00,SW,233,6.0,10.0,-999,-99.99,,,-99.99,,2013-12-26 16:23:00,
2013-12-26 11:53:00,-999.0,-99.9,-100.00,SW,231,7.0,9.0,-999,-99.99,,,-99.99,,2013-12-26 16:53:00,
2013-12-26 12:23:00,-999.0,-99.9,-100.00,West,272,7.0,11.0,-999,-99.99,,,-99.99,,2013-12-26 17:23:00,
2013-12-26 12:43:00,-999.0,-99.9,-100.00,WNW,283,9.0,12.0,-999,-99.99,,,-99.99,,2013-12-26 17:43:00,
2013-12-26 12:53:00,-999.0,-99.9,-100.00,WSW,250,7.0,10.0,-999,-99.99,,,-99.99,,2013-12-26 17:53:00,
2013-12-26 13:02:00,-999.0,-99.9,-100.00,West,271,5.0,9.0,-999,-99.99,,,-99.99,,2013-12-26 18:02:00,
2013-12-26 13:12:00,-999.0,-99.9,-100.00,WSW,254,9.0,13.0,-999,-99.99,,,-99.99,,2013-12-26 18:12:00,
2013-12-26 13:32:00,-999.0,-99.9,30.01,West,259,9.0,13.0,-999,-99.99,,,-99.99,,2013-12-26 18:32:00,
2013-12-26 13:42:00,-999.0,-99.9,-100.00,West,269,7.0,12.0,-999,-99.99,,,-99.99,,2013-12-26 18:42:00,
2013-12-26 13:52:00,-999.0,-99.9,-100.00,WSW,247,9.0,14.0,-999,-99.99,,,-99.99,,2013-12-26 18:52:00,
2013-12-26 14:02:00,-999.0,-99.9,-100.00,WSW,248,8.0,15.0,-999,-99.99,,,-99.99,,2013-12-26 19:02:00,
2013-12-26 14:12:00,-999.0,-99.9,-100.00,WSW,249,12.0,16.0,-999,-99.99,,,-99.99,,2013-12-26 19:12:00,
2013-12-26 14:22:00,-999.0,-99.9,-100.00,WSW,239,12.0,18.0,-999,-99.99,,,-99.99,,2013-12-26 19:22:00,
2013-12-26 14:42:00,-999.0,-99.9,-100.00,WSW,241,10.0,15.0,-999,-99.99,,,-99.99,,2013-12-26 19:42:00,
2013-12-26 14:52:00,-999.0,-99.9,-100.00,WSW,249,10.0,16.0,-999,-99.99,,,-99.99,,2013-12-26 19:52:00,
2013-12-26 15:02:00,-999.0,-99.9,-100.00,WNW,282,11.0,16.0,-999,-99.99,,,-99.99,,2013-12-26 20:02:00,
2013-12-26 15:12:00,-999.0,-99.9,-100.00,West,268,9.0,16.0,-999,-99.99,,,-99.99,,2013-12-26 20:12:00,
2013-12-26 15:22:00,-999.0,-99.9,-100.00,West,275,11.0,16.0,-999,-99.99,,,-99.99,,2013-12-26 20:22:00,
2013-12-26 15:33:00,-999.0,-99.9,-100.00,WSW,249,8.0,12.0,-999,-99.99,,,-99.99,,2013-12-26 20:33:00,
2013-12-26 15:52:00,-999.0,-99.9,-100.00,WSW,239,8.0,14.0,-999,-99.99,,,-99.99,,2013-12-26 20:52:00,
2013-12-26 16:02:00,-999.0,-99.9,-100.00,WSW,257,7.0,12.0,-999,-99.99,,,-99.99,,2013-12-26 21:02:00,
2013-12-26 17:03:00,-999.0,-99.9,-100.00,WSW,241,6.0,12.0,-999,-99.99,,,-99.99,,2013-12-26 22:03:00,
2013-12-26 17:12:00,-999.0,-99.9,-100.00,WSW,237,6.0,9.0,-999,-99.99,,,-99.99,,2013-12-26 22:12:00,
2013-12-26 17:43:00,-999.0,-99.9,-100.00,SW,218,3.0,8.0,-999,-99.99,,,-99.99,,2013-12-26 22:43:00,
2013-12-26 18:03:00,-999.0,-99.9,30.07,WSW,237,7.0,11.0,-999,-99.99,,,-99.99,,2013-12-26 23:03:00,
2013-12-26 18:33:00,-999.0,-99.9,-100.00,WSW,243,6.0,9.0,-999,-99.99,,,-99.99,,2013-12-26 23:33:00,
2013-12-26 18:53:00,-999.0,-99.9,-100.00,WSW,239,6.0,8.0,-999,-99.99,,,-99.99,,2013-12-26 23:53:00,
2013-12-26 19:02:00,-999.0,-99.9,-100.00,WSW,248,6.0,9.0,-999,-99.99,,,-99.99,,2013-12-27 00:02:00,
2013-12-26 19:12:00,-999.0,-99.9,-100.00,WSW,247,5.0,7.0,-999,-99.99,,,-99.99,,2013-12-27 00:12:00,
2013-12-26 19:22:00,-999.0,-99.9,-100.00,WSW,253,4.0,6.0,-999,-99.99,,,-99.99,,2013-12-27 00:22:00,
2013-12-26 19:42:00,-999.0,-99.9,-100.00,SW,224,4.0,7.0,-999,-99.99,,,-99.99,,2013-12-27 00:42:00,
2013-12-26 20:02:00,-999.0,-99.9,30.10,SW,228,4.0,6.0,-999,-99.99,,,-99.99,,2013-12-27 01:02:00,
2013-12-26 20:22:00,-999.0,-99.9,-100.00,WSW,240,5.0,7.0,-999,-99.99,,,-99.99,,2013-12-27 01:22:00,
2013-12-26 20:32:00,-999.0,-99.9,-100.00,SW,229,4.0,8.0,-999,-99.99,,,-99.99,,2013-12-27 01:32:00,
2013-12-26 20:42:00,-999.0,-99.9,-100.00,SSW,207,4.0,7.0,-999,-99.99,,,-99.99,,2013-12-27 01:42:00,
2013-12-26 21:12:00,-999.0,-99.9,-100.00,SW,234,7.0,10.0,-999,-99.99,,,-99.99,,2013-12-27 02:12:00,
2013-12-26 21:32:00,-999.0,-99.9,30.12,WSW,239,6.0,9.0,-999,-99.99,,,-99.99,,2013-12-27 02:32:00,
2013-12-26 21:52:00,-999.0,-99.9,-100.00,WSW,251,5.0,9.0,-999,-99.99,,,-99.99,,2013-12-27 02:52:00,
2013-12-26 22:12:00,-999.0,-99.9,30.12,WSW,241,6.0,10.0,-999,-99.99,,,-99.99,,2013-12-27 03:12:00,
2013-12-26 22:22:00,-999.0,-99.9,-100.00,WSW,242,5.0,8.0,-999,-99.99,,,-99.99,,2013-12-27 03:22:00,
2013-12-26 22:43:00,-999.0,-99.9,-100.00,WSW,257,6.0,10.0,-999,-99.99,,,-99.99,,2013-12-27 03:43:00,
2013-12-26 22:53:00,-999.0,-99.9,-100.00,WSW,251,7.0,10.0,-999,-99.99,,,-99.99,,2013-12-27 03:53:00,
2013-12-26 23:03:00,-999.0,-99.9,-100.00,WSW,248,7.0,10.0,-999,-99.99,,,-99.99,,2013-12-27 04:03:00,
2013-12-26 23:12:00,13.0,-99.9,30.12,WSW,248,7.0,10.0,-999,-99.99,,,-99.99,,2013-12-27 04:12:00,
2013-12-26 23:23:00,-999.0,-99.9,-100.00,WSW,255,6.0,9.0,-999,-99.99,,,-99.99,,2013-12-27 04:23:00,
2013-12-26 23:43:00,-999.0,-99.9,30.12,West,268,4.0,8.0,-999,-99.99,,,-99.99,,2013-12-27 04:43:00,